sensor_id;sensor_type;location;lat;lon;timestamp;P1;durP1;ratioP1;P2;durP2;ratioP2
33327;SDS011;19692;52.998;9.116;2023-09-30T00:02:12;18.77;;;6.10;;
33327;SDS011;19692;52.998;9.116;2023-09-30T00:04:38;18.03;;;6.30;;
33327;SDS011;19692;52.998;9.116;2023-09-30T00:07:04;14.93;;;5.80;;
33327;SDS011;19692;52.998;9.116;2023-09-30T00:09:30;21.13;;;6.77;;
33327;SDS011;19692;52.998;9.116;2023-09-30T00:11:56;21.43;;;6.13;;
33327;SDS011;19692;52.998;9.116;2023-09-30T00:14:22;15.17;;;6.30;;
33327;SDS011;19692;52.998;9.116;2023-09-30T00:16:48;19.07;;;6.17;;
33327;SDS011;19692;52.998;9.116;2023-09-30T00:19:14;16.30;;;5.93;;
33327;SDS011;19692;52.998;9.116;2023-09-30T00:21:40;18.70;;;5.97;;
33327;SDS011;19692;52.998;9.116;2023-09-30T00:24:06;14.40;;;6.57;;
33327;SDS011;19692;52.998;9.116;2023-09-30T00:26:32;15.50;;;6.40;;
33327;SDS011;19692;52.998;9.116;2023-09-30T00:28:57;18.57;;;6.70;;
33327;SDS011;19692;52.998;9.116;2023-09-30T00:31:23;12.43;;;6.23;;
33327;SDS011;19692;52.998;9.116;2023-09-30T00:33:49;14.80;;;5.63;;
33327;SDS011;19692;52.998;9.116;2023-09-30T00:36:15;14.37;;;6.20;;
33327;SDS011;19692;52.998;9.116;2023-09-30T00:38:41;17.77;;;6.10;;
33327;SDS011;19692;52.998;9.116;2023-09-30T00:41:07;17.07;;;6.07;;
33327;SDS011;19692;52.998;9.116;2023-09-30T00:43:33;18.43;;;6.57;;
33327;SDS011;19692;52.998;9.116;2023-09-30T00:46:04;15.40;;;6.23;;
33327;SDS011;19692;52.998;9.116;2023-09-30T00:48:46;15.23;;;6.10;;
33327;SDS011;19692;52.998;9.116;2023-09-30T00:51:12;14.97;;;6.50;;
33327;SDS011;19692;52.998;9.116;2023-09-30T00:53:38;17.93;;;6.57;;
33327;SDS011;19692;52.998;9.116;2023-09-30T00:56:03;18.57;;;7.03;;
33327;SDS011;19692;52.998;9.116;2023-09-30T00:58:30;19.10;;;6.83;;
33327;SDS011;19692;52.998;9.116;2023-09-30T01:00:57;16.77;;;6.97;;
33327;SDS011;19692;52.998;9.116;2023-09-30T01:03:24;17.00;;;6.40;;
33327;SDS011;19692;52.998;9.116;2023-09-30T01:05:50;19.40;;;6.70;;
33327;SDS011;19692;52.998;9.116;2023-09-30T01:08:16;17.47;;;6.67;;
33327;SDS011;19692;52.998;9.116;2023-09-30T01:10:43;20.90;;;7.17;;
33327;SDS011;19692;52.998;9.116;2023-09-30T01:13:09;14.90;;;6.50;;
33327;SDS011;19692;52.998;9.116;2023-09-30T01:15:35;17.10;;;6.70;;
33327;SDS011;19692;52.998;9.116;2023-09-30T01:18:02;16.93;;;6.43;;
33327;SDS011;19692;52.998;9.116;2023-09-30T01:20:29;20.07;;;6.60;;
33327;SDS011;19692;52.998;9.116;2023-09-30T01:22:55;14.33;;;6.80;;
33327;SDS011;19692;52.998;9.116;2023-09-30T01:25:22;16.40;;;7.40;;
33327;SDS011;19692;52.998;9.116;2023-09-30T01:27:48;15.27;;;6.13;;
33327;SDS011;19692;52.998;9.116;2023-09-30T01:30:16;23.67;;;7.87;;
33327;SDS011;19692;52.998;9.116;2023-09-30T01:32:43;21.37;;;6.47;;
33327;SDS011;19692;52.998;9.116;2023-09-30T01:35:09;20.73;;;6.90;;
33327;SDS011;19692;52.998;9.116;2023-09-30T01:37:35;17.43;;;7.20;;
33327;SDS011;19692;52.998;9.116;2023-09-30T01:40:01;11.43;;;6.30;;
33327;SDS011;19692;52.998;9.116;2023-09-30T01:42:33;19.07;;;7.57;;
33327;SDS011;19692;52.998;9.116;2023-09-30T01:44:59;15.63;;;6.63;;
33327;SDS011;19692;52.998;9.116;2023-09-30T01:47:24;18.10;;;6.33;;
33327;SDS011;19692;52.998;9.116;2023-09-30T01:49:50;17.63;;;7.30;;
33327;SDS011;19692;52.998;9.116;2023-09-30T01:52:16;20.90;;;7.07;;
33327;SDS011;19692;52.998;9.116;2023-09-30T01:54:42;18.40;;;7.17;;
33327;SDS011;19692;52.998;9.116;2023-09-30T01:57:07;19.73;;;6.90;;
33327;SDS011;19692;52.998;9.116;2023-09-30T01:59:33;17.27;;;6.50;;
33327;SDS011;19692;52.998;9.116;2023-09-30T02:01:59;17.77;;;7.23;;
33327;SDS011;19692;52.998;9.116;2023-09-30T02:04:25;19.67;;;7.23;;
33327;SDS011;19692;52.998;9.116;2023-09-30T02:06:51;20.90;;;6.90;;
33327;SDS011;19692;52.998;9.116;2023-09-30T02:09:17;19.40;;;6.70;;
33327;SDS011;19692;52.998;9.116;2023-09-30T02:11:42;19.70;;;7.53;;
33327;SDS011;19692;52.998;9.116;2023-09-30T02:14:09;16.20;;;6.20;;
33327;SDS011;19692;52.998;9.116;2023-09-30T02:16:37;22.73;;;7.43;;
33327;SDS011;19692;52.998;9.116;2023-09-30T02:19:03;15.20;;;6.20;;
33327;SDS011;19692;52.998;9.116;2023-09-30T02:21:29;17.97;;;7.27;;
33327;SDS011;19692;52.998;9.116;2023-09-30T02:23:55;18.93;;;6.43;;
33327;SDS011;19692;52.998;9.116;2023-09-30T02:26:21;15.77;;;6.70;;
33327;SDS011;19692;52.998;9.116;2023-09-30T02:28:47;19.43;;;6.53;;
33327;SDS011;19692;52.998;9.116;2023-09-30T02:31:13;17.73;;;6.60;;
33327;SDS011;19692;52.998;9.116;2023-09-30T02:33:39;19.00;;;6.90;;
33327;SDS011;19692;52.998;9.116;2023-09-30T02:36:08;20.17;;;6.63;;
33327;SDS011;19692;52.998;9.116;2023-09-30T02:38:34;22.80;;;7.03;;
33327;SDS011;19692;52.998;9.116;2023-09-30T02:41:02;15.87;;;6.47;;
33327;SDS011;19692;52.998;9.116;2023-09-30T02:43:28;16.10;;;6.20;;
33327;SDS011;19692;52.998;9.116;2023-09-30T02:45:54;16.43;;;7.10;;
33327;SDS011;19692;52.998;9.116;2023-09-30T02:48:20;16.40;;;6.80;;
33327;SDS011;19692;52.998;9.116;2023-09-30T02:50:49;19.43;;;7.07;;
33327;SDS011;19692;52.998;9.116;2023-09-30T02:53:14;21.13;;;7.17;;
33327;SDS011;19692;52.998;9.116;2023-09-30T02:55:40;13.77;;;7.00;;
33327;SDS011;19692;52.998;9.116;2023-09-30T02:58:07;15.67;;;6.80;;
33327;SDS011;19692;52.998;9.116;2023-09-30T03:00:34;18.43;;;7.33;;
33327;SDS011;19692;52.998;9.116;2023-09-30T03:03:01;18.87;;;7.17;;
33327;SDS011;19692;52.998;9.116;2023-09-30T03:05:27;19.40;;;7.43;;
33327;SDS011;19692;52.998;9.116;2023-09-30T03:07:55;23.17;;;7.37;;
33327;SDS011;19692;52.998;9.116;2023-09-30T03:10:21;18.90;;;6.77;;
33327;SDS011;19692;52.998;9.116;2023-09-30T03:12:57;19.70;;;6.77;;
33327;SDS011;19692;52.998;9.116;2023-09-30T03:15:27;24.53;;;6.97;;
33327;SDS011;19692;52.998;9.116;2023-09-30T03:17:56;21.17;;;6.67;;
33327;SDS011;19692;52.998;9.116;2023-09-30T03:20:22;21.07;;;7.03;;
33327;SDS011;19692;52.998;9.116;2023-09-30T03:22:50;21.03;;;6.93;;
33327;SDS011;19692;52.998;9.116;2023-09-30T03:25:17;23.80;;;6.67;;
33327;SDS011;19692;52.998;9.116;2023-09-30T03:27:44;17.97;;;6.67;;
33327;SDS011;19692;52.998;9.116;2023-09-30T03:30:14;20.93;;;7.23;;
33327;SDS011;19692;52.998;9.116;2023-09-30T03:32:41;19.43;;;7.37;;
33327;SDS011;19692;52.998;9.116;2023-09-30T03:35:08;22.30;;;7.53;;
33327;SDS011;19692;52.998;9.116;2023-09-30T03:37:42;18.27;;;6.23;;
33327;SDS011;19692;52.998;9.116;2023-09-30T03:40:10;15.80;;;6.97;;
33327;SDS011;19692;52.998;9.116;2023-09-30T03:42:40;16.60;;;6.20;;
33327;SDS011;19692;52.998;9.116;2023-09-30T03:45:09;17.17;;;6.47;;
33327;SDS011;19692;52.998;9.116;2023-09-30T03:47:36;21.10;;;7.13;;
33327;SDS011;19692;52.998;9.116;2023-09-30T03:50:03;17.07;;;5.53;;
33327;SDS011;19692;52.998;9.116;2023-09-30T03:52:31;11.07;;;5.30;;
33327;SDS011;19692;52.998;9.116;2023-09-30T03:54:59;18.53;;;6.60;;
33327;SDS011;19692;52.998;9.116;2023-09-30T03:57:30;19.70;;;6.97;;
33327;SDS011;19692;52.998;9.116;2023-09-30T03:59:57;21.80;;;6.70;;
33327;SDS011;19692;52.998;9.116;2023-09-30T04:02:22;17.03;;;6.40;;
33327;SDS011;19692;52.998;9.116;2023-09-30T04:04:48;16.50;;;6.00;;
33327;SDS011;19692;52.998;9.116;2023-09-30T04:07:17;20.57;;;6.67;;
33327;SDS011;19692;52.998;9.116;2023-09-30T04:09:42;17.07;;;6.23;;
33327;SDS011;19692;52.998;9.116;2023-09-30T04:12:08;20.17;;;7.03;;
33327;SDS011;19692;52.998;9.116;2023-09-30T04:14:34;16.43;;;6.43;;
33327;SDS011;19692;52.998;9.116;2023-09-30T04:16:59;15.60;;;6.13;;
33327;SDS011;19692;52.998;9.116;2023-09-30T04:19:25;18.57;;;7.10;;
33327;SDS011;19692;52.998;9.116;2023-09-30T04:21:51;16.07;;;5.83;;
33327;SDS011;19692;52.998;9.116;2023-09-30T04:24:17;19.30;;;6.10;;
33327;SDS011;19692;52.998;9.116;2023-09-30T04:26:45;20.20;;;6.63;;
33327;SDS011;19692;52.998;9.116;2023-09-30T04:29:10;19.07;;;6.23;;
33327;SDS011;19692;52.998;9.116;2023-09-30T04:31:37;23.47;;;6.83;;
33327;SDS011;19692;52.998;9.116;2023-09-30T04:34:07;21.70;;;6.43;;
33327;SDS011;19692;52.998;9.116;2023-09-30T04:36:33;18.10;;;6.70;;
33327;SDS011;19692;52.998;9.116;2023-09-30T04:39:00;18.53;;;5.93;;
33327;SDS011;19692;52.998;9.116;2023-09-30T04:41:26;17.67;;;5.63;;
33327;SDS011;19692;52.998;9.116;2023-09-30T04:43:52;17.97;;;5.93;;
33327;SDS011;19692;52.998;9.116;2023-09-30T04:46:18;16.30;;;6.20;;
33327;SDS011;19692;52.998;9.116;2023-09-30T04:48:48;16.43;;;6.23;;
33327;SDS011;19692;52.998;9.116;2023-09-30T04:51:13;19.73;;;6.37;;
33327;SDS011;19692;52.998;9.116;2023-09-30T04:53:43;18.90;;;6.07;;
33327;SDS011;19692;52.998;9.116;2023-09-30T04:56:10;14.07;;;6.23;;
33327;SDS011;19692;52.998;9.116;2023-09-30T04:58:35;14.47;;;6.53;;
33327;SDS011;19692;52.998;9.116;2023-09-30T05:01:01;20.50;;;6.37;;
33327;SDS011;19692;52.998;9.116;2023-09-30T05:03:27;17.57;;;6.20;;
33327;SDS011;19692;52.998;9.116;2023-09-30T05:05:53;17.03;;;5.93;;
33327;SDS011;19692;52.998;9.116;2023-09-30T05:08:22;18.07;;;5.97;;
33327;SDS011;19692;52.998;9.116;2023-09-30T05:10:49;18.83;;;7.30;;
33327;SDS011;19692;52.998;9.116;2023-09-30T05:13:15;15.27;;;5.73;;
33327;SDS011;19692;52.998;9.116;2023-09-30T05:15:41;17.20;;;6.20;;
33327;SDS011;19692;52.998;9.116;2023-09-30T05:18:07;18.13;;;5.80;;
33327;SDS011;19692;52.998;9.116;2023-09-30T05:20:35;18.20;;;6.90;;
33327;SDS011;19692;52.998;9.116;2023-09-30T05:23:03;17.13;;;6.77;;
33327;SDS011;19692;52.998;9.116;2023-09-30T05:25:28;16.07;;;5.77;;
33327;SDS011;19692;52.998;9.116;2023-09-30T05:27:54;16.97;;;6.47;;
33327;SDS011;19692;52.998;9.116;2023-09-30T05:30:20;21.83;;;5.87;;
33327;SDS011;19692;52.998;9.116;2023-09-30T05:32:46;14.33;;;5.80;;
33327;SDS011;19692;52.998;9.116;2023-09-30T05:35:12;15.30;;;5.90;;
33327;SDS011;19692;52.998;9.116;2023-09-30T05:37:41;15.40;;;5.37;;
33327;SDS011;19692;52.998;9.116;2023-09-30T05:40:08;18.03;;;5.63;;
33327;SDS011;19692;52.998;9.116;2023-09-30T05:42:45;19.03;;;6.50;;
33327;SDS011;19692;52.998;9.116;2023-09-30T05:45:11;18.43;;;6.30;;
33327;SDS011;19692;52.998;9.116;2023-09-30T05:47:40;17.73;;;5.93;;
33327;SDS011;19692;52.998;9.116;2023-09-30T05:50:06;23.07;;;6.60;;
33327;SDS011;19692;52.998;9.116;2023-09-30T05:52:34;18.43;;;6.27;;
33327;SDS011;19692;52.998;9.116;2023-09-30T05:55:01;15.50;;;5.60;;
33327;SDS011;19692;52.998;9.116;2023-09-30T05:57:27;15.33;;;5.90;;
33327;SDS011;19692;52.998;9.116;2023-09-30T05:59:54;12.77;;;5.73;;
33327;SDS011;19692;52.998;9.116;2023-09-30T06:02:19;18.40;;;6.60;;
33327;SDS011;19692;52.998;9.116;2023-09-30T06:04:45;17.93;;;7.33;;
33327;SDS011;19692;52.998;9.116;2023-09-30T06:07:11;17.63;;;6.67;;
33327;SDS011;19692;52.998;9.116;2023-09-30T06:09:37;17.77;;;6.37;;
33327;SDS011;19692;52.998;9.116;2023-09-30T06:12:03;15.80;;;6.50;;
33327;SDS011;19692;52.998;9.116;2023-09-30T06:14:31;14.07;;;6.07;;
33327;SDS011;19692;52.998;9.116;2023-09-30T06:16:58;19.67;;;6.03;;
33327;SDS011;19692;52.998;9.116;2023-09-30T06:19:24;18.77;;;6.93;;
33327;SDS011;19692;52.998;9.116;2023-09-30T06:21:51;16.17;;;6.13;;
33327;SDS011;19692;52.998;9.116;2023-09-30T06:24:17;13.10;;;6.17;;
33327;SDS011;19692;52.998;9.116;2023-09-30T06:26:45;18.70;;;6.97;;
33327;SDS011;19692;52.998;9.116;2023-09-30T06:29:11;19.13;;;6.30;;
33327;SDS011;19692;52.998;9.116;2023-09-30T06:31:36;17.00;;;6.83;;
33327;SDS011;19692;52.998;9.116;2023-09-30T06:34:02;18.13;;;6.73;;
33327;SDS011;19692;52.998;9.116;2023-09-30T06:36:29;16.60;;;6.70;;
33327;SDS011;19692;52.998;9.116;2023-09-30T06:38:55;22.67;;;7.40;;
33327;SDS011;19692;52.998;9.116;2023-09-30T06:41:21;13.73;;;6.63;;
33327;SDS011;19692;52.998;9.116;2023-09-30T06:43:48;17.73;;;7.67;;
33327;SDS011;19692;52.998;9.116;2023-09-30T06:46:14;15.27;;;7.10;;
33327;SDS011;19692;52.998;9.116;2023-09-30T06:52:13;17.23;;;6.20;;
33327;SDS011;19692;52.998;9.116;2023-09-30T06:54:39;10.83;;;6.37;;
33327;SDS011;19692;52.998;9.116;2023-09-30T06:57:05;15.83;;;7.07;;
33327;SDS011;19692;52.998;9.116;2023-09-30T06:59:32;14.40;;;6.23;;
33327;SDS011;19692;52.998;9.116;2023-09-30T07:01:58;16.03;;;6.30;;
33327;SDS011;19692;52.998;9.116;2023-09-30T07:04:23;15.70;;;6.93;;
33327;SDS011;19692;52.998;9.116;2023-09-30T07:06:52;16.10;;;6.30;;
33327;SDS011;19692;52.998;9.116;2023-09-30T07:09:18;13.50;;;6.97;;
33327;SDS011;19692;52.998;9.116;2023-09-30T07:11:45;15.37;;;6.07;;
33327;SDS011;19692;52.998;9.116;2023-09-30T07:14:17;15.10;;;6.40;;
33327;SDS011;19692;52.998;9.116;2023-09-30T07:16:50;13.50;;;6.10;;
33327;SDS011;19692;52.998;9.116;2023-09-30T07:19:21;18.30;;;6.33;;
33327;SDS011;19692;52.998;9.116;2023-09-30T07:21:47;17.70;;;6.70;;
33327;SDS011;19692;52.998;9.116;2023-09-30T07:24:13;18.70;;;6.77;;
33327;SDS011;19692;52.998;9.116;2023-09-30T07:26:49;14.43;;;6.63;;
33327;SDS011;19692;52.998;9.116;2023-09-30T07:29:20;14.67;;;6.07;;
33327;SDS011;19692;52.998;9.116;2023-09-30T07:31:54;18.87;;;6.73;;
33327;SDS011;19692;52.998;9.116;2023-09-30T07:37:23;15.80;;;5.80;;
33327;SDS011;19692;52.998;9.116;2023-09-30T07:39:49;14.00;;;5.80;;
33327;SDS011;19692;52.998;9.116;2023-09-30T07:42:15;13.23;;;6.33;;
33327;SDS011;19692;52.998;9.116;2023-09-30T07:44:42;13.43;;;6.03;;
33327;SDS011;19692;52.998;9.116;2023-09-30T07:47:08;14.33;;;5.70;;
33327;SDS011;19692;52.998;9.116;2023-09-30T07:49:34;14.27;;;6.20;;
33327;SDS011;19692;52.998;9.116;2023-09-30T07:52:00;18.37;;;5.97;;
33327;SDS011;19692;52.998;9.116;2023-09-30T07:54:26;15.40;;;6.33;;
33327;SDS011;19692;52.998;9.116;2023-09-30T07:56:55;15.00;;;6.10;;
33327;SDS011;19692;52.998;9.116;2023-09-30T07:59:33;11.83;;;5.47;;
33327;SDS011;19692;52.998;9.116;2023-09-30T08:01:59;18.73;;;5.80;;
33327;SDS011;19692;52.998;9.116;2023-09-30T08:04:39;16.63;;;5.97;;
33327;SDS011;19692;52.998;9.116;2023-09-30T08:07:34;14.47;;;6.10;;
33327;SDS011;19692;52.998;9.116;2023-09-30T08:10:06;12.10;;;5.40;;
33327;SDS011;19692;52.998;9.116;2023-09-30T08:12:38;12.40;;;5.50;;
33327;SDS011;19692;52.998;9.116;2023-09-30T08:15:07;14.67;;;5.27;;
33327;SDS011;19692;52.998;9.116;2023-09-30T08:17:36;18.13;;;7.20;;
33327;SDS011;19692;52.998;9.116;2023-09-30T08:20:02;14.97;;;5.80;;
33327;SDS011;19692;52.998;9.116;2023-09-30T08:22:29;17.13;;;6.53;;
33327;SDS011;19692;52.998;9.116;2023-09-30T08:24:55;14.10;;;5.80;;
33327;SDS011;19692;52.998;9.116;2023-09-30T08:27:21;13.10;;;6.23;;
33327;SDS011;19692;52.998;9.116;2023-09-30T08:29:49;16.57;;;7.20;;
33327;SDS011;19692;52.998;9.116;2023-09-30T08:32:14;11.13;;;5.53;;
33327;SDS011;19692;52.998;9.116;2023-09-30T08:34:40;15.20;;;5.90;;
33327;SDS011;19692;52.998;9.116;2023-09-30T08:37:13;11.83;;;5.27;;
33327;SDS011;19692;52.998;9.116;2023-09-30T08:39:39;14.93;;;5.37;;
33327;SDS011;19692;52.998;9.116;2023-09-30T08:42:07;12.97;;;5.67;;
33327;SDS011;19692;52.998;9.116;2023-09-30T08:44:38;13.07;;;5.77;;
33327;SDS011;19692;52.998;9.116;2023-09-30T08:47:06;13.77;;;4.70;;
33327;SDS011;19692;52.998;9.116;2023-09-30T08:49:35;13.40;;;4.80;;
33327;SDS011;19692;52.998;9.116;2023-09-30T08:52:06;17.13;;;5.40;;
33327;SDS011;19692;52.998;9.116;2023-09-30T08:54:34;12.67;;;4.60;;
33327;SDS011;19692;52.998;9.116;2023-09-30T08:57:00;10.53;;;5.30;;
33327;SDS011;19692;52.998;9.116;2023-09-30T08:59:29;17.67;;;5.57;;
33327;SDS011;19692;52.998;9.116;2023-09-30T09:01:57;12.00;;;5.00;;
33327;SDS011;19692;52.998;9.116;2023-09-30T09:04:23;11.90;;;4.43;;
33327;SDS011;19692;52.998;9.116;2023-09-30T09:06:50;15.33;;;5.40;;
33327;SDS011;19692;52.998;9.116;2023-09-30T09:09:16;11.07;;;4.93;;
33327;SDS011;19692;52.998;9.116;2023-09-30T09:11:44;12.13;;;5.77;;
33327;SDS011;19692;52.998;9.116;2023-09-30T09:14:11;10.40;;;4.77;;
33327;SDS011;19692;52.998;9.116;2023-09-30T09:16:47;13.17;;;4.63;;
33327;SDS011;19692;52.998;9.116;2023-09-30T09:19:20;11.53;;;4.77;;
33327;SDS011;19692;52.998;9.116;2023-09-30T09:21:53;11.63;;;4.87;;
33327;SDS011;19692;52.998;9.116;2023-09-30T09:24:28;13.10;;;4.93;;
33327;SDS011;19692;52.998;9.116;2023-09-30T09:27:08;13.50;;;4.80;;
33327;SDS011;19692;52.998;9.116;2023-09-30T09:29:41;10.77;;;4.53;;
33327;SDS011;19692;52.998;9.116;2023-09-30T09:32:10;9.17;;;4.23;;
33327;SDS011;19692;52.998;9.116;2023-09-30T09:34:41;10.13;;;4.47;;
33327;SDS011;19692;52.998;9.116;2023-09-30T09:37:12;12.77;;;4.50;;
33327;SDS011;19692;52.998;9.116;2023-09-30T09:40:15;17.33;;;9.73;;
33327;SDS011;19692;52.998;9.116;2023-09-30T09:42:38;10.07;;;3.83;;
33327;SDS011;19692;52.998;9.116;2023-09-30T09:45:05;12.00;;;4.83;;
33327;SDS011;19692;52.998;9.116;2023-09-30T09:47:31;9.00;;;3.97;;
33327;SDS011;19692;52.998;9.116;2023-09-30T09:49:58;12.10;;;4.37;;
33327;SDS011;19692;52.998;9.116;2023-09-30T09:52:25;7.67;;;4.17;;
33327;SDS011;19692;52.998;9.116;2023-09-30T09:54:52;12.10;;;4.67;;
33327;SDS011;19692;52.998;9.116;2023-09-30T09:57:18;10.00;;;3.77;;
33327;SDS011;19692;52.998;9.116;2023-09-30T09:59:45;12.00;;;3.70;;
33327;SDS011;19692;52.998;9.116;2023-09-30T10:02:13;9.77;;;3.80;;
33327;SDS011;19692;52.998;9.116;2023-09-30T10:04:44;8.03;;;3.73;;
33327;SDS011;19692;52.998;9.116;2023-09-30T10:07:12;6.20;;;3.40;;
33327;SDS011;19692;52.998;9.116;2023-09-30T10:09:46;11.60;;;4.67;;
33327;SDS011;19692;52.998;9.116;2023-09-30T10:12:15;10.27;;;4.00;;
33327;SDS011;19692;52.998;9.116;2023-09-30T10:14:43;7.33;;;3.83;;
33327;SDS011;19692;52.998;9.116;2023-09-30T10:17:09;8.53;;;3.73;;
33327;SDS011;19692;52.998;9.116;2023-09-30T10:19:35;7.90;;;3.40;;
33327;SDS011;19692;52.998;9.116;2023-09-30T10:24:45;7.90;;;3.53;;
33327;SDS011;19692;52.998;9.116;2023-09-30T10:29:47;10.87;;;3.70;;
33327;SDS011;19692;52.998;9.116;2023-09-30T10:38:36;9.83;;;3.40;;
33327;SDS011;19692;52.998;9.116;2023-09-30T10:40:47;8.97;;;3.07;;
33327;SDS011;19692;52.998;9.116;2023-09-30T10:46:03;8.37;;;3.73;;
33327;SDS011;19692;52.998;9.116;2023-09-30T10:48:52;9.90;;;3.20;;
33327;SDS011;19692;52.998;9.116;2023-09-30T10:51:18;8.20;;;3.40;;
33327;SDS011;19692;52.998;9.116;2023-09-30T10:53:52;12.13;;;3.13;;
33327;SDS011;19692;52.998;9.116;2023-09-30T10:56:22;12.77;;;3.70;;
33327;SDS011;19692;52.998;9.116;2023-09-30T10:58:50;9.20;;;3.17;;
33327;SDS011;19692;52.998;9.116;2023-09-30T11:01:18;8.60;;;3.03;;
33327;SDS011;19692;52.998;9.116;2023-09-30T11:03:46;9.67;;;3.30;;
33327;SDS011;19692;52.998;9.116;2023-09-30T11:06:17;7.97;;;4.00;;
33327;SDS011;19692;52.998;9.116;2023-09-30T11:08:59;9.83;;;3.40;;
33327;SDS011;19692;52.998;9.116;2023-09-30T11:11:33;11.47;;;3.20;;
33327;SDS011;19692;52.998;9.116;2023-09-30T11:14:02;9.50;;;3.13;;
33327;SDS011;19692;52.998;9.116;2023-09-30T11:16:54;10.70;;;3.20;;
33327;SDS011;19692;52.998;9.116;2023-09-30T11:19:21;9.30;;;3.20;;
33327;SDS011;19692;52.998;9.116;2023-09-30T11:21:48;6.37;;;3.00;;
33327;SDS011;19692;52.998;9.116;2023-09-30T11:24:16;9.17;;;3.37;;
33327;SDS011;19692;52.998;9.116;2023-09-30T11:26:42;8.77;;;3.93;;
33327;SDS011;19692;52.998;9.116;2023-09-30T11:29:11;10.03;;;3.27;;
33327;SDS011;19692;52.998;9.116;2023-09-30T11:31:41;9.57;;;3.20;;
33327;SDS011;19692;52.998;9.116;2023-09-30T11:34:15;8.97;;;3.20;;
33327;SDS011;19692;52.998;9.116;2023-09-30T11:36:54;7.70;;;2.60;;
33327;SDS011;19692;52.998;9.116;2023-09-30T11:39:30;8.97;;;3.10;;
33327;SDS011;19692;52.998;9.116;2023-09-30T11:41:58;9.00;;;3.13;;
33327;SDS011;19692;52.998;9.116;2023-09-30T11:44:26;5.80;;;2.87;;
33327;SDS011;19692;52.998;9.116;2023-09-30T11:46:57;6.53;;;2.93;;
33327;SDS011;19692;52.998;9.116;2023-09-30T11:49:31;9.27;;;3.30;;
33327;SDS011;19692;52.998;9.116;2023-09-30T11:52:04;10.87;;;3.40;;
33327;SDS011;19692;52.998;9.116;2023-09-30T11:57:09;9.67;;;3.00;;
33327;SDS011;19692;52.998;9.116;2023-09-30T11:59:40;8.10;;;2.90;;
33327;SDS011;19692;52.998;9.116;2023-09-30T12:02:10;8.13;;;3.00;;
33327;SDS011;19692;52.998;9.116;2023-09-30T12:04:37;9.03;;;3.30;;
33327;SDS011;19692;52.998;9.116;2023-09-30T12:07:04;6.53;;;3.20;;
33327;SDS011;19692;52.998;9.116;2023-09-30T12:09:32;7.87;;;3.23;;
33327;SDS011;19692;52.998;9.116;2023-09-30T12:12:00;6.20;;;2.67;;
33327;SDS011;19692;52.998;9.116;2023-09-30T12:14:26;9.00;;;3.23;;
33327;SDS011;19692;52.998;9.116;2023-09-30T12:16:54;8.30;;;3.23;;
33327;SDS011;19692;52.998;9.116;2023-09-30T12:19:21;8.77;;;3.17;;
33327;SDS011;19692;52.998;9.116;2023-09-30T12:21:47;9.47;;;3.23;;
33327;SDS011;19692;52.998;9.116;2023-09-30T12:24:14;9.77;;;3.80;;
33327;SDS011;19692;52.998;9.116;2023-09-30T12:26:49;8.90;;;3.40;;
33327;SDS011;19692;52.998;9.116;2023-09-30T12:29:20;5.33;;;2.93;;
33327;SDS011;19692;52.998;9.116;2023-09-30T12:31:47;8.27;;;3.13;;
33327;SDS011;19692;52.998;9.116;2023-09-30T12:34:15;7.43;;;2.77;;
33327;SDS011;19692;52.998;9.116;2023-09-30T12:36:51;7.63;;;2.80;;
33327;SDS011;19692;52.998;9.116;2023-09-30T12:39:16;6.43;;;2.70;;
33327;SDS011;19692;52.998;9.116;2023-09-30T12:41:48;4.57;;;2.57;;
33327;SDS011;19692;52.998;9.116;2023-09-30T12:44:14;7.93;;;2.80;;
33327;SDS011;19692;52.998;9.116;2023-09-30T12:46:40;6.70;;;2.40;;
33327;SDS011;19692;52.998;9.116;2023-09-30T12:49:06;7.43;;;3.07;;
33327;SDS011;19692;52.998;9.116;2023-09-30T12:51:33;5.30;;;2.90;;
33327;SDS011;19692;52.998;9.116;2023-09-30T12:53:59;5.93;;;2.97;;
33327;SDS011;19692;52.998;9.116;2023-09-30T12:56:26;7.13;;;2.47;;
33327;SDS011;19692;52.998;9.116;2023-09-30T12:58:54;7.00;;;2.67;;
33327;SDS011;19692;52.998;9.116;2023-09-30T13:01:20;7.93;;;2.60;;
33327;SDS011;19692;52.998;9.116;2023-09-30T13:03:47;7.40;;;2.97;;
33327;SDS011;19692;52.998;9.116;2023-09-30T13:06:14;7.40;;;3.40;;
33327;SDS011;19692;52.998;9.116;2023-09-30T13:08:41;6.53;;;2.80;;
33327;SDS011;19692;52.998;9.116;2023-09-30T13:11:07;8.77;;;3.40;;
33327;SDS011;19692;52.998;9.116;2023-09-30T13:13:33;6.53;;;2.83;;
33327;SDS011;19692;52.998;9.116;2023-09-30T13:16:00;8.07;;;3.10;;
33327;SDS011;19692;52.998;9.116;2023-09-30T13:18:27;11.70;;;3.80;;
33327;SDS011;19692;52.998;9.116;2023-09-30T13:20:53;6.87;;;2.80;;
33327;SDS011;19692;52.998;9.116;2023-09-30T13:23:19;7.47;;;2.87;;
33327;SDS011;19692;52.998;9.116;2023-09-30T13:25:45;8.53;;;3.50;;
33327;SDS011;19692;52.998;9.116;2023-09-30T13:28:12;8.60;;;2.80;;
33327;SDS011;19692;52.998;9.116;2023-09-30T13:30:38;8.43;;;3.10;;
33327;SDS011;19692;52.998;9.116;2023-09-30T13:33:04;6.27;;;2.73;;
33327;SDS011;19692;52.998;9.116;2023-09-30T13:35:30;7.83;;;2.80;;
33327;SDS011;19692;52.998;9.116;2023-09-30T13:37:56;6.23;;;2.67;;
33327;SDS011;19692;52.998;9.116;2023-09-30T13:40:22;7.00;;;2.73;;
33327;SDS011;19692;52.998;9.116;2023-09-30T13:42:48;6.00;;;3.00;;
33327;SDS011;19692;52.998;9.116;2023-09-30T13:45:14;7.80;;;3.23;;
33327;SDS011;19692;52.998;9.116;2023-09-30T13:47:44;7.83;;;3.00;;
33327;SDS011;19692;52.998;9.116;2023-09-30T13:50:10;7.33;;;3.00;;
33327;SDS011;19692;52.998;9.116;2023-09-30T13:52:36;7.13;;;2.80;;
33327;SDS011;19692;52.998;9.116;2023-09-30T13:55:02;7.17;;;2.93;;
33327;SDS011;19692;52.998;9.116;2023-09-30T13:57:29;6.50;;;3.37;;
33327;SDS011;19692;52.998;9.116;2023-09-30T13:59:56;10.73;;;3.00;;
33327;SDS011;19692;52.998;9.116;2023-09-30T14:02:21;6.10;;;2.67;;
33327;SDS011;19692;52.998;9.116;2023-09-30T14:04:51;5.40;;;2.50;;
33327;SDS011;19692;52.998;9.116;2023-09-30T14:07:18;7.30;;;3.03;;
33327;SDS011;19692;52.998;9.116;2023-09-30T14:09:44;6.30;;;2.90;;
33327;SDS011;19692;52.998;9.116;2023-09-30T14:12:10;9.47;;;2.70;;
33327;SDS011;19692;52.998;9.116;2023-09-30T14:14:35;6.97;;;3.07;;
33327;SDS011;19692;52.998;9.116;2023-09-30T14:17:01;7.50;;;2.93;;
33327;SDS011;19692;52.998;9.116;2023-09-30T14:19:36;6.17;;;2.77;;
33327;SDS011;19692;52.998;9.116;2023-09-30T14:22:03;9.13;;;3.10;;
33327;SDS011;19692;52.998;9.116;2023-09-30T14:24:30;8.77;;;3.57;;
33327;SDS011;19692;52.998;9.116;2023-09-30T14:26:58;9.10;;;2.90;;
33327;SDS011;19692;52.998;9.116;2023-09-30T14:29:24;7.40;;;3.00;;
33327;SDS011;19692;52.998;9.116;2023-09-30T14:31:50;6.93;;;3.07;;
33327;SDS011;19692;52.998;9.116;2023-09-30T14:34:16;6.20;;;3.03;;
33327;SDS011;19692;52.998;9.116;2023-09-30T14:36:43;8.17;;;3.40;;
33327;SDS011;19692;52.998;9.116;2023-09-30T14:39:09;5.70;;;2.77;;
33327;SDS011;19692;52.998;9.116;2023-09-30T14:41:35;9.97;;;3.37;;
33327;SDS011;19692;52.998;9.116;2023-09-30T14:44:01;9.20;;;3.57;;
33327;SDS011;19692;52.998;9.116;2023-09-30T14:46:32;8.27;;;2.73;;
33327;SDS011;19692;52.998;9.116;2023-09-30T14:49:02;6.70;;;2.80;;
33327;SDS011;19692;52.998;9.116;2023-09-30T14:51:27;10.87;;;2.90;;
33327;SDS011;19692;52.998;9.116;2023-09-30T14:53:53;11.53;;;3.87;;
33327;SDS011;19692;52.998;9.116;2023-09-30T14:56:19;5.73;;;2.87;;
33327;SDS011;19692;52.998;9.116;2023-09-30T14:58:45;5.77;;;3.70;;
33327;SDS011;19692;52.998;9.116;2023-09-30T15:01:11;11.50;;;3.63;;
33327;SDS011;19692;52.998;9.116;2023-09-30T15:03:38;11.67;;;6.70;;
33327;SDS011;19692;52.998;9.116;2023-09-30T15:06:04;7.17;;;3.83;;